sensor_id;sensor_type;location;lat;lon;timestamp;temperature;humidity
30572;DHT22;17348;50.948;10.696;2023-05-19T00:00:18;10.70;99.90
30572;DHT22;17348;50.948;10.696;2023-05-19T00:03:21;10.60;99.90
30572;DHT22;17348;50.948;10.696;2023-05-19T00:06:25;10.60;99.90
30572;DHT22;17348;50.948;10.696;2023-05-19T00:09:31;10.50;99.90
30572;DHT22;17348;50.948;10.696;2023-05-19T00:12:34;10.60;99.90
30572;DHT22;17348;50.948;10.696;2023-05-19T00:15:37;10.50;99.90
30572;DHT22;17348;50.948;10.696;2023-05-19T00:18:40;10.50;99.90
30572;DHT22;17348;50.948;10.696;2023-05-19T00:21:45;10.40;99.90
30572;DHT22;17348;50.948;10.696;2023-05-19T00:24:49;10.40;99.90
30572;DHT22;17348;50.948;10.696;2023-05-19T00:27:51;10.40;99.90
30572;DHT22;17348;50.948;10.696;2023-05-19T00:30:54;10.40;99.90
30572;DHT22;17348;50.948;10.696;2023-05-19T00:33:56;10.30;99.90
30572;DHT22;17348;50.948;10.696;2023-05-19T00:36:58;10.30;99.90
30572;DHT22;17348;50.948;10.696;2023-05-19T00:40:03;10.30;99.90
30572;DHT22;17348;50.948;10.696;2023-05-19T00:43:06;10.30;99.90
30572;DHT22;17348;50.948;10.696;2023-05-19T00:46:09;10.20;99.90
30572;DHT22;17348;50.948;10.696;2023-05-19T00:49:11;10.20;99.90
30572;DHT22;17348;50.948;10.696;2023-05-19T00:52:14;10.20;99.90
30572;DHT22;17348;50.948;10.696;2023-05-19T00:55:18;10.20;99.90
30572;DHT22;17348;50.948;10.696;2023-05-19T00:58:21;10.20;99.90
30572;DHT22;17348;50.948;10.696;2023-05-19T01:01:23;10.10;99.90
30572;DHT22;17348;50.948;10.696;2023-05-19T01:04:26;10.10;99.90
30572;DHT22;17348;50.948;10.696;2023-05-19T01:07:29;10.10;99.90
30572;DHT22;17348;50.948;10.696;2023-05-19T01:10:33;10.10;99.90
30572;DHT22;17348;50.948;10.696;2023-05-19T01:13:36;10.10;99.90
30572;DHT22;17348;50.948;10.696;2023-05-19T01:16:41;10.10;99.90
30572;DHT22;17348;50.948;10.696;2023-05-19T01:19:53;10.20;99.90
30572;DHT22;17348;50.948;10.696;2023-05-19T01:23:19;10.20;99.90
30572;DHT22;17348;50.948;10.696;2023-05-19T01:30:27;10.20;99.90
30572;DHT22;17348;50.948;10.696;2023-05-19T01:33:32;10.20;99.90
30572;DHT22;17348;50.948;10.696;2023-05-19T01:36:35;10.20;99.90
30572;DHT22;17348;50.948;10.696;2023-05-19T01:39:38;10.20;99.90
30572;DHT22;17348;50.948;10.696;2023-05-19T01:42:41;10.20;99.90
30572;DHT22;17348;50.948;10.696;2023-05-19T01:45:47;10.10;99.90
30572;DHT22;17348;50.948;10.696;2023-05-19T01:48:50;10.10;99.90
30572;DHT22;17348;50.948;10.696;2023-05-19T01:51:53;10.00;99.90
30572;DHT22;17348;50.948;10.696;2023-05-19T01:54:55;10.10;99.90
30572;DHT22;17348;50.948;10.696;2023-05-19T01:58:04;10.10;99.90
30572;DHT22;17348;50.948;10.696;2023-05-19T02:01:16;10.10;99.90
30572;DHT22;17348;50.948;10.696;2023-05-19T02:04:29;10.10;99.90
30572;DHT22;17348;50.948;10.696;2023-05-19T02:07:41;10.10;99.90
30572;DHT22;17348;50.948;10.696;2023-05-19T02:10:50;10.10;99.90
30572;DHT22;17348;50.948;10.696;2023-05-19T02:13:55;10.10;99.90
30572;DHT22;17348;50.948;10.696;2023-05-19T02:16:59;10.10;99.90
30572;DHT22;17348;50.948;10.696;2023-05-19T02:20:03;10.10;99.90
30572;DHT22;17348;50.948;10.696;2023-05-19T02:23:06;10.00;99.90
30572;DHT22;17348;50.948;10.696;2023-05-19T02:26:08;10.00;99.90
30572;DHT22;17348;50.948;10.696;2023-05-19T02:29:10;10.10;99.90
30572;DHT22;17348;50.948;10.696;2023-05-19T02:32:14;10.00;99.90
30572;DHT22;17348;50.948;10.696;2023-05-19T02:35:17;10.00;99.90
30572;DHT22;17348;50.948;10.696;2023-05-19T02:38:19;10.10;99.90
30572;DHT22;17348;50.948;10.696;2023-05-19T02:41:21;10.10;99.90
30572;DHT22;17348;50.948;10.696;2023-05-19T02:44:24;10.00;99.90
30572;DHT22;17348;50.948;10.696;2023-05-19T02:47:27;10.00;99.90
30572;DHT22;17348;50.948;10.696;2023-05-19T02:50:30;10.00;99.90
30572;DHT22;17348;50.948;10.696;2023-05-19T02:53:32;10.00;99.90
30572;DHT22;17348;50.948;10.696;2023-05-19T02:56:34;10.00;99.90
30572;DHT22;17348;50.948;10.696;2023-05-19T02:59:37;9.90;99.90
30572;DHT22;17348;50.948;10.696;2023-05-19T03:02:40;9.90;99.90
30572;DHT22;17348;50.948;10.696;2023-05-19T03:05:43;9.90;99.90
30572;DHT22;17348;50.948;10.696;2023-05-19T03:08:46;9.90;99.90
30572;DHT22;17348;50.948;10.696;2023-05-19T03:11:48;9.90;99.90
30572;DHT22;17348;50.948;10.696;2023-05-19T03:14:50;9.90;99.90
30572;DHT22;17348;50.948;10.696;2023-05-19T03:17:54;9.90;99.90
30572;DHT22;17348;50.948;10.696;2023-05-19T03:20:56;9.90;99.90
30572;DHT22;17348;50.948;10.696;2023-05-19T03:23:59;9.90;99.90
30572;DHT22;17348;50.948;10.696;2023-05-19T03:27:03;9.80;99.90
30572;DHT22;17348;50.948;10.696;2023-05-19T03:30:07;9.80;99.90
30572;DHT22;17348;50.948;10.696;2023-05-19T03:33:11;9.80;99.90
30572;DHT22;17348;50.948;10.696;2023-05-19T03:36:13;9.80;99.90
30572;DHT22;17348;50.948;10.696;2023-05-19T03:39:15;9.80;99.90
30572;DHT22;17348;50.948;10.696;2023-05-19T03:42:18;9.80;99.90
30572;DHT22;17348;50.948;10.696;2023-05-19T03:45:20;9.80;99.90
30572;DHT22;17348;50.948;10.696;2023-05-19T03:48:24;9.90;99.90
30572;DHT22;17348;50.948;10.696;2023-05-19T03:51:26;9.80;99.90
30572;DHT22;17348;50.948;10.696;2023-05-19T03:54:29;9.80;99.90
30572;DHT22;17348;50.948;10.696;2023-05-19T03:57:32;9.80;99.90
30572;DHT22;17348;50.948;10.696;2023-05-19T04:00:34;9.80;99.90
30572;DHT22;17348;50.948;10.696;2023-05-19T04:03:38;9.80;99.90
30572;DHT22;17348;50.948;10.696;2023-05-19T04:06:40;9.80;99.90
30572;DHT22;17348;50.948;10.696;2023-05-19T04:09:43;9.80;99.90
30572;DHT22;17348;50.948;10.696;2023-05-19T04:12:45;9.80;99.90
30572;DHT22;17348;50.948;10.696;2023-05-19T04:15:48;9.70;99.90
30572;DHT22;17348;50.948;10.696;2023-05-19T04:18:51;9.70;99.90
30572;DHT22;17348;50.948;10.696;2023-05-19T04:21:54;9.70;99.90
30572;DHT22;17348;50.948;10.696;2023-05-19T04:24:56;9.70;99.90
30572;DHT22;17348;50.948;10.696;2023-05-19T04:28:00;9.70;99.90
30572;DHT22;17348;50.948;10.696;2023-05-19T04:31:05;9.70;99.90
30572;DHT22;17348;50.948;10.696;2023-05-19T04:34:12;9.70;99.90
30572;DHT22;17348;50.948;10.696;2023-05-19T04:37:14;9.70;99.90
30572;DHT22;17348;50.948;10.696;2023-05-19T04:40:17;9.70;99.90
30572;DHT22;17348;50.948;10.696;2023-05-19T04:43:21;9.70;99.90
30572;DHT22;17348;50.948;10.696;2023-05-19T04:46:23;9.70;99.90
30572;DHT22;17348;50.948;10.696;2023-05-19T04:49:27;9.80;99.90
30572;DHT22;17348;50.948;10.696;2023-05-19T04:52:29;9.80;99.90
30572;DHT22;17348;50.948;10.696;2023-05-19T04:55:32;9.70;99.90
30572;DHT22;17348;50.948;10.696;2023-05-19T04:58:34;9.70;99.90
30572;DHT22;17348;50.948;10.696;2023-05-19T05:01:38;9.70;99.90
30572;DHT22;17348;50.948;10.696;2023-05-19T05:04:42;9.70;99.90
30572;DHT22;17348;50.948;10.696;2023-05-19T05:07:46;9.70;99.90
30572;DHT22;17348;50.948;10.696;2023-05-19T05:10:50;9.60;99.90
30572;DHT22;17348;50.948;10.696;2023-05-19T05:13:53;9.60;99.90
30572;DHT22;17348;50.948;10.696;2023-05-19T05:16:58;9.70;99.90
30572;DHT22;17348;50.948;10.696;2023-05-19T05:20:03;9.70;99.90
30572;DHT22;17348;50.948;10.696;2023-05-19T05:23:07;9.70;99.90
30572;DHT22;17348;50.948;10.696;2023-05-19T05:26:16;9.80;99.90
30572;DHT22;17348;50.948;10.696;2023-05-19T05:29:19;9.90;99.90
30572;DHT22;17348;50.948;10.696;2023-05-19T05:32:22;10.00;99.90
30572;DHT22;17348;50.948;10.696;2023-05-19T05:35:26;10.10;99.90
30572;DHT22;17348;50.948;10.696;2023-05-19T05:38:28;10.20;99.90
30572;DHT22;17348;50.948;10.696;2023-05-19T05:41:31;10.30;99.90
30572;DHT22;17348;50.948;10.696;2023-05-19T05:44:35;10.40;99.90
30572;DHT22;17348;50.948;10.696;2023-05-19T05:47:38;10.50;99.90
30572;DHT22;17348;50.948;10.696;2023-05-19T05:50:45;10.70;99.90
30572;DHT22;17348;50.948;10.696;2023-05-19T05:53:51;10.80;99.90
30572;DHT22;17348;50.948;10.696;2023-05-19T05:56:53;10.90;99.90
30572;DHT22;17348;50.948;10.696;2023-05-19T05:59:56;11.00;99.90
30572;DHT22;17348;50.948;10.696;2023-05-19T06:02:58;11.20;99.90
30572;DHT22;17348;50.948;10.696;2023-05-19T06:06:04;11.30;99.90
30572;DHT22;17348;50.948;10.696;2023-05-19T06:09:07;11.50;99.90
30572;DHT22;17348;50.948;10.696;2023-05-19T06:12:09;11.50;99.90
30572;DHT22;17348;50.948;10.696;2023-05-19T06:15:12;11.60;99.90
30572;DHT22;17348;50.948;10.696;2023-05-19T06:18:14;11.70;99.90
30572;DHT22;17348;50.948;10.696;2023-05-19T06:21:18;11.70;99.90
30572;DHT22;17348;50.948;10.696;2023-05-19T06:24:21;11.70;99.90
30572;DHT22;17348;50.948;10.696;2023-05-19T06:27:24;11.80;99.90
30572;DHT22;17348;50.948;10.696;2023-05-19T06:30:26;11.90;99.90
30572;DHT22;17348;50.948;10.696;2023-05-19T06:33:28;12.00;99.90
30572;DHT22;17348;50.948;10.696;2023-05-19T06:36:35;12.10;99.90
30572;DHT22;17348;50.948;10.696;2023-05-19T06:39:38;12.30;99.90
30572;DHT22;17348;50.948;10.696;2023-05-19T06:42:40;12.40;99.90
30572;DHT22;17348;50.948;10.696;2023-05-19T06:45:42;12.50;99.90
30572;DHT22;17348;50.948;10.696;2023-05-19T06:48:45;12.60;99.90
30572;DHT22;17348;50.948;10.696;2023-05-19T06:51:48;12.70;99.90
30572;DHT22;17348;50.948;10.696;2023-05-19T06:54:51;12.70;99.90
30572;DHT22;17348;50.948;10.696;2023-05-19T06:57:54;13.00;99.90
30572;DHT22;17348;50.948;10.696;2023-05-19T07:00:56;13.50;99.90
30572;DHT22;17348;50.948;10.696;2023-05-19T07:03:59;13.80;99.90
30572;DHT22;17348;50.948;10.696;2023-05-19T07:07:03;13.80;99.90
30572;DHT22;17348;50.948;10.696;2023-05-19T07:10:06;13.90;99.90
30572;DHT22;17348;50.948;10.696;2023-05-19T07:13:08;13.90;99.90
30572;DHT22;17348;50.948;10.696;2023-05-19T07:16:11;14.10;99.90
30572;DHT22;17348;50.948;10.696;2023-05-19T07:19:13;15.10;99.90
30572;DHT22;17348;50.948;10.696;2023-05-19T07:22:17;16.10;99.90
30572;DHT22;17348;50.948;10.696;2023-05-19T07:25:19;15.60;99.90
30572;DHT22;17348;50.948;10.696;2023-05-19T07:28:21;15.30;99.90
30572;DHT22;17348;50.948;10.696;2023-05-19T07:31:24;15.00;99.90
30572;DHT22;17348;50.948;10.696;2023-05-19T07:34:26;14.90;99.90
30572;DHT22;17348;50.948;10.696;2023-05-19T07:37:30;14.70;99.90
30572;DHT22;17348;50.948;10.696;2023-05-19T07:40:33;14.60;99.90
30572;DHT22;17348;50.948;10.696;2023-05-19T07:43:35;15.20;99.90
30572;DHT22;17348;50.948;10.696;2023-05-19T07:46:37;15.50;99.90
30572;DHT22;17348;50.948;10.696;2023-05-19T07:49:40;15.30;99.90
30572;DHT22;17348;50.948;10.696;2023-05-19T07:52:43;15.00;99.90
30572;DHT22;17348;50.948;10.696;2023-05-19T07:55:46;14.90;99.90
30572;DHT22;17348;50.948;10.696;2023-05-19T07:58:48;14.90;99.90
30572;DHT22;17348;50.948;10.696;2023-05-19T08:01:50;14.80;99.90
30572;DHT22;17348;50.948;10.696;2023-05-19T08:04:53;14.70;99.90
30572;DHT22;17348;50.948;10.696;2023-05-19T08:07:57;14.60;99.90
30572;DHT22;17348;50.948;10.696;2023-05-19T08:11:03;14.60;99.90
30572;DHT22;17348;50.948;10.696;2023-05-19T08:14:06;14.70;99.90
30572;DHT22;17348;50.948;10.696;2023-05-19T08:17:09;14.90;99.90
30572;DHT22;17348;50.948;10.696;2023-05-19T08:20:11;15.10;99.90
30572;DHT22;17348;50.948;10.696;2023-05-19T08:23:15;15.30;99.90
30572;DHT22;17348;50.948;10.696;2023-05-19T08:26:18;15.30;99.90
30572;DHT22;17348;50.948;10.696;2023-05-19T08:29:24;15.20;99.90
30572;DHT22;17348;50.948;10.696;2023-05-19T08:32:26;15.10;99.90
30572;DHT22;17348;50.948;10.696;2023-05-19T08:35:29;15.10;99.90
30572;DHT22;17348;50.948;10.696;2023-05-19T08:38:33;15.10;99.90
30572;DHT22;17348;50.948;10.696;2023-05-19T08:41:35;15.20;99.90
30572;DHT22;17348;50.948;10.696;2023-05-19T08:44:38;15.30;99.90
30572;DHT22;17348;50.948;10.696;2023-05-19T08:47:45;15.40;99.90
30572;DHT22;17348;50.948;10.696;2023-05-19T08:50:54;15.30;99.90
30572;DHT22;17348;50.948;10.696;2023-05-19T08:54:07;15.30;99.90
30572;DHT22;17348;50.948;10.696;2023-05-19T08:57:10;15.40;99.90
30572;DHT22;17348;50.948;10.696;2023-05-19T09:00:14;15.50;99.90
30572;DHT22;17348;50.948;10.696;2023-05-19T09:03:17;15.50;99.90
30572;DHT22;17348;50.948;10.696;2023-05-19T09:06:20;15.60;99.90
30572;DHT22;17348;50.948;10.696;2023-05-19T09:09:24;15.60;99.90
30572;DHT22;17348;50.948;10.696;2023-05-19T09:12:26;15.60;99.90
30572;DHT22;17348;50.948;10.696;2023-05-19T09:15:29;15.60;99.90
30572;DHT22;17348;50.948;10.696;2023-05-19T09:18:32;15.60;99.90
30572;DHT22;17348;50.948;10.696;2023-05-19T09:21:35;15.70;99.90
30572;DHT22;17348;50.948;10.696;2023-05-19T09:24:39;15.80;99.90
30572;DHT22;17348;50.948;10.696;2023-05-19T09:27:42;15.80;99.90
30572;DHT22;17348;50.948;10.696;2023-05-19T09:30:44;15.90;99.90
30572;DHT22;17348;50.948;10.696;2023-05-19T09:33:46;15.80;99.90
30572;DHT22;17348;50.948;10.696;2023-05-19T09:36:49;15.80;99.90
30572;DHT22;17348;50.948;10.696;2023-05-19T09:39:54;15.70;99.90
30572;DHT22;17348;50.948;10.696;2023-05-19T09:42:57;15.70;99.90
30572;DHT22;17348;50.948;10.696;2023-05-19T09:46:01;15.90;99.90
30572;DHT22;17348;50.948;10.696;2023-05-19T09:49:08;15.80;99.90
30572;DHT22;17348;50.948;10.696;2023-05-19T09:52:14;15.90;99.90
30572;DHT22;17348;50.948;10.696;2023-05-19T09:55:18;16.10;99.90
30572;DHT22;17348;50.948;10.696;2023-05-19T09:58:23;16.20;99.90
30572;DHT22;17348;50.948;10.696;2023-05-19T10:01:26;16.30;99.90
30572;DHT22;17348;50.948;10.696;2023-05-19T10:04:29;16.40;99.90
30572;DHT22;17348;50.948;10.696;2023-05-19T10:07:32;16.60;99.90
30572;DHT22;17348;50.948;10.696;2023-05-19T10:10:37;16.80;99.90
30572;DHT22;17348;50.948;10.696;2023-05-19T10:13:40;17.10;99.90
30572;DHT22;17348;50.948;10.696;2023-05-19T10:16:43;17.20;99.90
30572;DHT22;17348;50.948;10.696;2023-05-19T10:19:47;17.40;99.90
30572;DHT22;17348;50.948;10.696;2023-05-19T10:22:51;17.40;99.90
30572;DHT22;17348;50.948;10.696;2023-05-19T10:25:57;17.40;99.90
30572;DHT22;17348;50.948;10.696;2023-05-19T10:29:01;17.40;99.90
30572;DHT22;17348;50.948;10.696;2023-05-19T10:32:09;17.30;99.90
30572;DHT22;17348;50.948;10.696;2023-05-19T10:35:39;17.40;99.90
30572;DHT22;17348;50.948;10.696;2023-05-19T10:38:48;17.30;99.90
30572;DHT22;17348;50.948;10.696;2023-05-19T10:42:03;17.30;99.90
30572;DHT22;17348;50.948;10.696;2023-05-19T10:45:13;17.40;99.90
30572;DHT22;17348;50.948;10.696;2023-05-19T10:48:19;17.60;99.90
30572;DHT22;17348;50.948;10.696;2023-05-19T10:51:29;17.70;99.90
30572;DHT22;17348;50.948;10.696;2023-05-19T10:54:38;17.70;99.90
30572;DHT22;17348;50.948;10.696;2023-05-19T10:57:54;17.80;99.90
30572;DHT22;17348;50.948;10.696;2023-05-19T11:00:59;17.80;99.90
30572;DHT22;17348;50.948;10.696;2023-05-19T11:04:06;17.80;99.90
30572;DHT22;17348;50.948;10.696;2023-05-19T11:07:09;17.80;99.90
30572;DHT22;17348;50.948;10.696;2023-05-19T11:10:11;17.90;99.90
30572;DHT22;17348;50.948;10.696;2023-05-19T11:13:21;18.10;99.90
30572;DHT22;17348;50.948;10.696;2023-05-19T11:16:29;18.10;99.90
30572;DHT22;17348;50.948;10.696;2023-05-19T11:19:34;18.10;99.90
30572;DHT22;17348;50.948;10.696;2023-05-19T11:22:37;18.40;99.90
30572;DHT22;17348;50.948;10.696;2023-05-19T11:25:48;18.30;99.90
30572;DHT22;17348;50.948;10.696;2023-05-19T11:28:52;18.10;99.90
30572;DHT22;17348;50.948;10.696;2023-05-19T11:31:55;18.00;99.90
30572;DHT22;17348;50.948;10.696;2023-05-19T11:34:58;17.90;99.90
30572;DHT22;17348;50.948;10.696;2023-05-19T11:38:01;18.00;99.90
30572;DHT22;17348;50.948;10.696;2023-05-19T11:41:04;18.10;99.90
30572;DHT22;17348;50.948;10.696;2023-05-19T11:44:10;18.10;99.90
30572;DHT22;17348;50.948;10.696;2023-05-19T11:47:14;18.00;99.90
30572;DHT22;17348;50.948;10.696;2023-05-19T11:50:17;18.10;99.90
30572;DHT22;17348;50.948;10.696;2023-05-19T11:53:20;18.20;99.90
30572;DHT22;17348;50.948;10.696;2023-05-19T11:56:22;18.20;99.90
30572;DHT22;17348;50.948;10.696;2023-05-19T11:59:30;18.40;99.50
30572;DHT22;17348;50.948;10.696;2023-05-19T12:02:35;18.40;99.60
30572;DHT22;17348;50.948;10.696;2023-05-19T12:05:39;18.50;99.90
30572;DHT22;17348;50.948;10.696;2023-05-19T12:08:42;18.70;99.90
30572;DHT22;17348;50.948;10.696;2023-05-19T12:11:44;18.70;99.90
30572;DHT22;17348;50.948;10.696;2023-05-19T12:14:49;18.60;99.90
30572;DHT22;17348;50.948;10.696;2023-05-19T12:17:56;18.60;99.90
30572;DHT22;17348;50.948;10.696;2023-05-19T12:20:58;18.50;99.80
30572;DHT22;17348;50.948;10.696;2023-05-19T12:24:01;18.30;97.80
30572;DHT22;17348;50.948;10.696;2023-05-19T12:27:05;18.20;96.80
30572;DHT22;17348;50.948;10.696;2023-05-19T12:30:11;18.10;97.90
30572;DHT22;17348;50.948;10.696;2023-05-19T12:33:14;18.10;95.90
30572;DHT22;17348;50.948;10.696;2023-05-19T12:36:17;18.10;96.90
30572;DHT22;17348;50.948;10.696;2023-05-19T12:39:19;18.10;97.60
30572;DHT22;17348;50.948;10.696;2023-05-19T12:42:24;18.00;98.10
30572;DHT22;17348;50.948;10.696;2023-05-19T12:45:34;17.90;98.30
30572;DHT22;17348;50.948;10.696;2023-05-19T12:48:39;17.90;96.60
30572;DHT22;17348;50.948;10.696;2023-05-19T12:51:50;17.90;94.60
30572;DHT22;17348;50.948;10.696;2023-05-19T12:54:57;17.90;93.40
30572;DHT22;17348;50.948;10.696;2023-05-19T12:58:05;17.90;93.50
30572;DHT22;17348;50.948;10.696;2023-05-19T13:01:16;17.90;94.90
30572;DHT22;17348;50.948;10.696;2023-05-19T13:04:18;18.00;96.00
30572;DHT22;17348;50.948;10.696;2023-05-19T13:07:21;18.10;97.40
30572;DHT22;17348;50.948;10.696;2023-05-19T13:10:24;18.20;97.20
30572;DHT22;17348;50.948;10.696;2023-05-19T13:13:27;18.20;97.30
30572;DHT22;17348;50.948;10.696;2023-05-19T13:16:31;18.20;97.60
30572;DHT22;17348;50.948;10.696;2023-05-19T13:19:33;18.10;97.10
30572;DHT22;17348;50.948;10.696;2023-05-19T13:22:36;18.10;97.20
30572;DHT22;17348;50.948;10.696;2023-05-19T13:25:38;18.00;97.80
30572;DHT22;17348;50.948;10.696;2023-05-19T13:28:41;18.10;98.30
30572;DHT22;17348;50.948;10.696;2023-05-19T13:31:45;18.20;98.20
30572;DHT22;17348;50.948;10.696;2023-05-19T13:34:47;18.20;98.40
30572;DHT22;17348;50.948;10.696;2023-05-19T13:37:49;18.20;98.40
30572;DHT22;17348;50.948;10.696;2023-05-19T13:40:51;18.30;98.80
30572;DHT22;17348;50.948;10.696;2023-05-19T13:43:56;18.30;98.50
30572;DHT22;17348;50.948;10.696;2023-05-19T13:47:00;18.50;98.10
30572;DHT22;17348;50.948;10.696;2023-05-19T13:50:03;18.50;97.60
30572;DHT22;17348;50.948;10.696;2023-05-19T13:53:06;18.30;97.40
30572;DHT22;17348;50.948;10.696;2023-05-19T13:56:08;18.20;97.00
30572;DHT22;17348;50.948;10.696;2023-05-19T13:59:11;18.20;97.10
30572;DHT22;17348;50.948;10.696;2023-05-19T14:02:15;18.20;96.90
30572;DHT22;17348;50.948;10.696;2023-05-19T14:05:17;18.10;97.20
30572;DHT22;17348;50.948;10.696;2023-05-19T14:08:19;18.20;97.20
30572;DHT22;17348;50.948;10.696;2023-05-19T14:11:22;18.10;96.70
30572;DHT22;17348;50.948;10.696;2023-05-19T14:14:25;18.20;95.70
30572;DHT22;17348;50.948;10.696;2023-05-19T14:17:28;18.20;95.50
30572;DHT22;17348;50.948;10.696;2023-05-19T14:20:31;18.20;96.00
30572;DHT22;17348;50.948;10.696;2023-05-19T14:23:33;18.10;96.60
30572;DHT22;17348;50.948;10.696;2023-05-19T14:26:35;18.10;96.70
30572;DHT22;17348;50.948;10.696;2023-05-19T14:29:38;18.00;97.30
30572;DHT22;17348;50.948;10.696;2023-05-19T14:32:41;17.80;97.40
30572;DHT22;17348;50.948;10.696;2023-05-19T14:35:44;17.80;97.20
30572;DHT22;17348;50.948;10.696;2023-05-19T14:38:46;17.80;97.50
30572;DHT22;17348;50.948;10.696;2023-05-19T14:41:49;17.80;97.20
30572;DHT22;17348;50.948;10.696;2023-05-19T14:44:52;17.90;97.40
30572;DHT22;17348;50.948;10.696;2023-05-19T14:47:56;17.90;97.60
30572;DHT22;17348;50.948;10.696;2023-05-19T14:50:58;18.00;97.20
30572;DHT22;17348;50.948;10.696;2023-05-19T14:54:01;18.10;97.20
30572;DHT22;17348;50.948;10.696;2023-05-19T14:57:03;18.20;97.60
30572;DHT22;17348;50.948;10.696;2023-05-19T15:00:07;18.20;97.20
30572;DHT22;17348;50.948;10.696;2023-05-19T15:03:11;18.40;97.30
30572;DHT22;17348;50.948;10.696;2023-05-19T15:06:14;18.60;96.70
30572;DHT22;17348;50.948;10.696;2023-05-19T15:09:16;18.60;96.70
30572;DHT22;17348;50.948;10.696;2023-05-19T15:12:18;18.70;96.30
30572;DHT22;17348;50.948;10.696;2023-05-19T15:15:21;18.70;96.10
30572;DHT22;17348;50.948;10.696;2023-05-19T15:18:24;18.70;96.20
30572;DHT22;17348;50.948;10.696;2023-05-19T15:21:27;18.60;95.90
30572;DHT22;17348;50.948;10.696;2023-05-19T15:24:29;18.60;96.20
30572;DHT22;17348;50.948;10.696;2023-05-19T15:27:33;18.50;96.30
30572;DHT22;17348;50.948;10.696;2023-05-19T15:30:36;18.60;96.70
30572;DHT22;17348;50.948;10.696;2023-05-19T15:33:39;18.70;96.80
30572;DHT22;17348;50.948;10.696;2023-05-19T15:36:42;18.70;96.90
30572;DHT22;17348;50.948;10.696;2023-05-19T15:39:44;18.60;96.50
30572;DHT22;17348;50.948;10.696;2023-05-19T15:42:46;18.70;97.00
30572;DHT22;17348;50.948;10.696;2023-05-19T15:45:49;18.70;97.20
30572;DHT22;17348;50.948;10.696;2023-05-19T15:48:56;18.70;97.40
30572;DHT22;17348;50.948;10.696;2023-05-19T15:51:58;18.80;98.20
30572;DHT22;17348;50.948;10.696;2023-05-19T15:55:00;18.80;98.30
30572;DHT22;17348;50.948;10.696;2023-05-19T15:58:03;18.90;98.50
30572;DHT22;17348;50.948;10.696;2023-05-19T16:01:08;18.90;98.20
30572;DHT22;17348;50.948;10.696;2023-05-19T16:04:14;18.90;98.30
30572;DHT22;17348;50.948;10.696;2023-05-19T16:07:17;19.00;98.40
30572;DHT22;17348;50.948;10.696;2023-05-19T16:10:22;19.00;98.40
30572;DHT22;17348;50.948;10.696;2023-05-19T16:13:24;18.80;98.90
30572;DHT22;17348;50.948;10.696;2023-05-19T16:16:27;18.80;99.00
30572;DHT22;17348;50.948;10.696;2023-05-19T16:19:30;18.60;99.10
30572;DHT22;17348;50.948;10.696;2023-05-19T16:22:33;18.50;99.10
30572;DHT22;17348;50.948;10.696;2023-05-19T16:25:35;18.70;98.90
30572;DHT22;17348;50.948;10.696;2023-05-19T16:28:37;18.70;98.60
30572;DHT22;17348;50.948;10.696;2023-05-19T16:31:40;18.70;98.20
30572;DHT22;17348;50.948;10.696;2023-05-19T16:34:43;18.70;98.60
30572;DHT22;17348;50.948;10.696;2023-05-19T16:37:46;18.60;99.00
30572;DHT22;17348;50.948;10.696;2023-05-19T16:40:48;18.60;98.90
30572;DHT22;17348;50.948;10.696;2023-05-19T16:43:50;18.60;99.30
30572;DHT22;17348;50.948;10.696;2023-05-19T16:46:53;18.50;99.20
30572;DHT22;17348;50.948;10.696;2023-05-19T16:49:57;18.40;99.50
30572;DHT22;17348;50.948;10.696;2023-05-19T16:52:59;18.50;99.70
30572;DHT22;17348;50.948;10.696;2023-05-19T16:56:01;18.60;99.60
30572;DHT22;17348;50.948;10.696;2023-05-19T16:59:04;18.50;99.60
30572;DHT22;17348;50.948;10.696;2023-05-19T17:02:07;18.60;99.80
30572;DHT22;17348;50.948;10.696;2023-05-19T17:05:10;18.50;99.40
30572;DHT22;17348;50.948;10.696;2023-05-19T17:08:13;18.40;99.70
30572;DHT22;17348;50.948;10.696;2023-05-19T17:11:15;18.40;99.20
30572;DHT22;17348;50.948;10.696;2023-05-19T17:14:18;18.40;99.20
30572;DHT22;17348;50.948;10.696;2023-05-19T17:17:20;18.30;99.00
30572;DHT22;17348;50.948;10.696;2023-05-19T17:20:24;18.20;99.10
30572;DHT22;17348;50.948;10.696;2023-05-19T17:23:26;18.10;99.50
30572;DHT22;17348;50.948;10.696;2023-05-19T17:26:29;18.10;99.90
30572;DHT22;17348;50.948;10.696;2023-05-19T17:29:31;18.00;99.90
30572;DHT22;17348;50.948;10.696;2023-05-19T17:32:34;18.00;99.90
30572;DHT22;17348;50.948;10.696;2023-05-19T17:35:40;17.90;99.90
30572;DHT22;17348;50.948;10.696;2023-05-19T17:38:42;17.80;99.90
30572;DHT22;17348;50.948;10.696;2023-05-19T17:41:45;17.80;99.90
30572;DHT22;17348;50.948;10.696;2023-05-19T17:44:47;17.70;99.90
30572;DHT22;17348;50.948;10.696;2023-05-19T17:47:49;17.70;99.90
30572;DHT22;17348;50.948;10.696;2023-05-19T17:50:53;17.60;99.90
30572;DHT22;17348;50.948;10.696;2023-05-19T17:53:56;17.50;99.90
30572;DHT22;17348;50.948;10.696;2023-05-19T17:57:02;17.50;99.90
30572;DHT22;17348;50.948;10.696;2023-05-19T18:00:09;17.30;99.90
30572;DHT22;17348;50.948;10.696;2023-05-19T18:03:12;17.20;99.90
30572;DHT22;17348;50.948;10.696;2023-05-19T18:06:16;17.10;99.90
30572;DHT22;17348;50.948;10.696;2023-05-19T18:09:19;17.00;99.90
30572;DHT22;17348;50.948;10.696;2023-05-19T18:12:23;16.80;99.90
30572;DHT22;17348;50.948;10.696;2023-05-19T18:15:26;16.80;99.90
30572;DHT22;17348;50.948;10.696;2023-05-19T18:18:28;16.70;99.90
30572;DHT22;17348;50.948;10.696;2023-05-19T18:21:32;16.70;99.90
30572;DHT22;17348;50.948;10.696;2023-05-19T18:24:34;16.60;99.90
30572;DHT22;17348;50.948;10.696;2023-05-19T18:27:37;16.60;99.90
30572;DHT22;17348;50.948;10.696;2023-05-19T18:30:39;16.50;99.90
30572;DHT22;17348;50.948;10.696;2023-05-19T18:33:44;16.40;99.90
30572;DHT22;17348;50.948;10.696;2023-05-19T18:36:49;16.40;99.90
30572;DHT22;17348;50.948;10.696;2023-05-19T18:39:51;16.30;99.90
30572;DHT22;17348;50.948;10.696;2023-05-19T18:42:53;16.20;99.90
30572;DHT22;17348;50.948;10.696;2023-05-19T18:45:56;16.20;99.90
30572;DHT22;17348;50.948;10.696;2023-05-19T18:48:58;16.10;99.90
30572;DHT22;17348;50.948;10.696;2023-05-19T18:52:02;16.00;99.90
30572;DHT22;17348;50.948;10.696;2023-05-19T18:55:05;16.00;99.90
30572;DHT22;17348;50.948;10.696;2023-05-19T18:58:08;15.90;99.90
30572;DHT22;17348;50.948;10.696;2023-05-19T19:01:10;15.90;99.90
30572;DHT22;17348;50.948;10.696;2023-05-19T19:04:16;15.80;99.90
30572;DHT22;17348;50.948;10.696;2023-05-19T19:07:22;15.70;99.90